Terminal Aerodrome Forecast
Issued by NWS

Home | Current Version | Previous Version | Text Only | Print | Product List | Glossary On
Versions: 1 2 3 4 5 6 7 8 9 10 11 12 13 14 15 16 17
000
FTUS43 KGRR 300716 AAA
TAFJXN
TAF AMD
KJXN 300716Z 3007/3106 17005KT 4SM BR SCT005 OVC035
      TEMPO 3008/3012 2SM BR BKN015
     FM301600 23006KT P6SM BKN025
     FM302300 23005KT P6SM SKC=

USA.gov is the U.S. government's official web portal to all federal, state and local government web resources and services.